createdAt,value
2017-08-20T00:01:06.778Z,38.49
2017-08-20T00:03:34.344Z,38.57
2017-08-20T00:06:01.842Z,38.58
2017-08-20T00:08:29.379Z,38.67
2017-08-20T00:10:56.889Z,38.56
2017-08-20T00:13:24.465Z,38.57
2017-08-20T00:15:52.061Z,38.64
2017-08-20T00:18:19.560Z,38.73
2017-08-20T00:20:47.141Z,38.63
2017-08-20T00:23:14.646Z,38.80
2017-08-20T00:25:42.150Z,38.66
2017-08-20T00:28:09.692Z,38.71
2017-08-20T00:30:37.231Z,38.80
2017-08-20T00:33:04.772Z,38.77
2017-08-20T00:35:32.308Z,38.77
2017-08-20T00:37:59.818Z,38.81
2017-08-20T00:40:27.360Z,38.87
2017-08-20T00:42:54.913Z,38.96
2017-08-20T00:45:22.409Z,39.03
2017-08-20T00:47:49.909Z,39.05
2017-08-20T00:50:17.454Z,38.95
2017-08-20T00:52:45.003Z,38.98
2017-08-20T00:55:12.509Z,39.10
2017-08-20T00:57:40.021Z,39.07
2017-08-20T01:00:07.609Z,39.01
2017-08-20T01:02:35.159Z,39.12
2017-08-20T01:05:02.660Z,39.08
2017-08-20T01:07:30.255Z,39.14
2017-08-20T01:09:57.781Z,39.10
2017-08-20T01:12:25.285Z,39.13
2017-08-20T01:14:52.889Z,39.29
2017-08-20T01:17:20.393Z,39.20
2017-08-20T01:19:47.896Z,39.18
2017-08-20T01:22:15.449Z,39.29
2017-08-20T01:24:42.973Z,39.33
2017-08-20T01:27:10.497Z,39.33
2017-08-20T01:29:38.039Z,39.35
2017-08-20T01:32:05.584Z,39.33
2017-08-20T01:34:33.158Z,39.43
2017-08-20T01:37:00.669Z,39.49
2017-08-20T01:39:28.281Z,39.40
2017-08-20T01:41:55.853Z,39.45
2017-08-20T01:44:23.458Z,39.43
2017-08-20T01:46:50.969Z,39.44
2017-08-20T01:49:18.521Z,39.61
2017-08-20T01:51:46.075Z,39.54
2017-08-20T01:54:13.625Z,39.55
2017-08-20T01:56:41.174Z,39.63
2017-08-20T01:59:08.707Z,39.61
2017-08-20T02:01:36.220Z,39.64
2017-08-20T02:04:03.753Z,39.71
2017-08-20T02:06:31.293Z,39.75
2017-08-20T02:08:58.798Z,39.78
2017-08-20T02:11:26.352Z,39.73
2017-08-20T02:13:53.897Z,39.75
2017-08-20T02:16:21.394Z,39.81
2017-08-20T02:18:48.954Z,39.83
2017-08-20T02:21:16.457Z,39.86
2017-08-20T02:23:43.950Z,39.83
2017-08-20T02:26:11.533Z,39.92
2017-08-20T02:28:46.021Z,39.93
2017-08-20T02:31:13.615Z,39.87
2017-08-20T02:33:41.189Z,40.06
2017-08-20T02:36:08.750Z,39.97
2017-08-20T02:38:36.265Z,40.04
2017-08-20T02:41:03.821Z,40.07
2017-08-20T02:43:31.322Z,40.13
2017-08-20T02:45:58.841Z,40.08
2017-08-20T02:48:26.555Z,40.12
2017-08-20T02:50:54.277Z,40.20
2017-08-20T02:53:22.139Z,40.25
2017-08-20T02:55:49.710Z,40.20
2017-08-20T02:58:17.261Z,40.20
2017-08-20T03:00:44.781Z,40.17
2017-08-20T03:03:12.405Z,40.27
2017-08-20T03:05:39.939Z,40.30
2017-08-20T03:08:07.517Z,40.33
2017-08-20T03:10:35.055Z,40.27
2017-08-20T03:13:02.695Z,40.38
2017-08-20T03:15:30.792Z,40.38
2017-08-20T03:17:59.277Z,40.48
2017-08-20T03:20:26.869Z,40.50
2017-08-20T03:22:54.780Z,40.46
2017-08-20T03:25:22.681Z,40.52
2017-08-20T03:27:50.272Z,40.49
2017-08-20T03:30:17.854Z,40.55
2017-08-20T03:32:45.469Z,40.56
2017-08-20T03:35:13.029Z,40.60
2017-08-20T03:37:40.563Z,40.62
2017-08-20T03:40:08.117Z,40.68
2017-08-20T03:42:35.630Z,40.70
2017-08-20T03:45:03.170Z,40.71
2017-08-20T03:47:30.718Z,40.71
2017-08-20T03:49:58.289Z,40.73
2017-08-20T03:52:25.808Z,40.75
2017-08-20T03:54:53.594Z,40.80
2017-08-20T03:57:21.137Z,40.84
2017-08-20T03:59:48.714Z,40.88
2017-08-20T04:02:16.230Z,40.86
2017-08-20T04:04:43.747Z,40.71
2017-08-20T04:07:11.291Z,40.40
2017-08-20T04:09:38.794Z,40.22
2017-08-20T04:12:06.369Z,39.85
2017-08-20T04:14:33.905Z,39.76
2017-08-20T04:17:01.441Z,39.87
2017-08-20T04:19:28.985Z,40.08
2017-08-20T04:21:56.538Z,39.98
2017-08-20T04:24:24.089Z,39.92
2017-08-20T04:26:51.648Z,39.83
2017-08-20T04:29:19.194Z,39.79
2017-08-20T04:31:46.697Z,39.75
2017-08-20T04:34:14.262Z,39.75
2017-08-20T04:36:41.765Z,39.69
2017-08-20T04:39:09.314Z,39.59
2017-08-20T04:41:36.810Z,39.57
2017-08-20T04:44:04.311Z,39.62
2017-08-20T04:46:31.853Z,39.51
2017-08-20T04:48:59.361Z,39.46
2017-08-20T04:51:26.940Z,39.60
2017-08-20T04:53:54.433Z,39.64
2017-08-20T04:56:21.992Z,39.67
2017-08-20T04:58:49.519Z,39.69
2017-08-20T05:01:17.015Z,39.78
2017-08-20T05:03:44.581Z,39.86
2017-08-20T05:06:12.090Z,39.81
2017-08-20T05:08:39.627Z,39.84
2017-08-20T05:11:07.181Z,39.90
2017-08-20T05:13:34.696Z,39.88
2017-08-20T05:16:02.253Z,39.93
2017-08-20T05:18:29.789Z,39.95
2017-08-20T05:20:57.517Z,39.95
2017-08-20T05:23:25.065Z,39.99
2017-08-20T05:25:52.627Z,40.00
2017-08-20T05:28:20.142Z,40.01
2017-08-20T05:30:47.657Z,40.04
2017-08-20T05:33:15.233Z,40.02
2017-08-20T05:35:42.769Z,40.01
2017-08-20T05:38:10.264Z,40.02
2017-08-20T05:40:37.802Z,40.00
2017-08-20T05:43:05.346Z,39.99
2017-08-20T05:45:32.899Z,40.00
2017-08-20T05:48:00.403Z,40.00
2017-08-20T05:50:27.907Z,39.98
2017-08-20T05:52:55.473Z,40.00
2017-08-20T05:55:23.014Z,40.00
2017-08-20T05:57:50.566Z,39.96
2017-08-20T06:00:18.074Z,39.96
2017-08-20T06:02:45.573Z,39.97
2017-08-20T06:05:13.106Z,39.95
2017-08-20T06:07:40.661Z,39.92
2017-08-20T06:10:08.218Z,39.92
2017-08-20T06:12:35.713Z,39.83
2017-08-20T06:15:03.254Z,39.78
2017-08-20T06:17:30.789Z,39.71
2017-08-20T06:19:58.337Z,39.60
2017-08-20T06:22:25.835Z,39.57
2017-08-20T06:24:53.368Z,39.53
2017-08-20T06:27:20.905Z,39.48
2017-08-20T06:29:48.423Z,39.35
2017-08-20T06:32:16.004Z,39.37
2017-08-20T06:34:43.566Z,39.33
2017-08-20T06:37:11.118Z,39.32
2017-08-20T06:39:38.682Z,39.26
2017-08-20T06:42:06.236Z,39.18
2017-08-20T06:44:33.774Z,39.16
2017-08-20T06:47:01.501Z,39.13
2017-08-20T06:49:29.093Z,39.07
2017-08-20T10:22:39.240Z,36.97
2017-08-20T10:25:06.793Z,36.85
2017-08-20T10:27:34.325Z,36.67
2017-08-20T10:30:02.708Z,36.73
2017-08-20T10:32:30.322Z,36.52
2017-08-20T10:34:57.895Z,36.45
2017-08-20T10:37:25.550Z,36.50
2017-08-20T10:39:53.339Z,36.32
2017-08-20T10:42:21.090Z,36.20
2017-08-20T10:44:48.661Z,36.08
2017-08-20T10:47:16.358Z,36.23
2017-08-20T10:49:43.884Z,36.06
2017-08-20T10:52:11.385Z,35.89
2017-08-20T10:54:38.993Z,35.91
2017-08-20T10:57:07.169Z,35.80
2017-08-20T10:59:34.766Z,35.55
2017-08-20T11:02:02.385Z,35.55
2017-08-20T11:04:29.916Z,35.43
2017-08-20T11:06:57.627Z,35.42
2017-08-20T11:09:25.737Z,35.38
2017-08-20T11:11:53.810Z,35.26
2017-08-20T11:14:21.575Z,35.51
2017-08-20T11:16:49.367Z,35.31
2017-08-20T11:19:16.940Z,35.25
2017-08-20T11:21:44.482Z,35.10
2017-08-20T11:24:12.013Z,34.97
2017-08-20T11:26:39.580Z,34.92
2017-08-20T11:29:07.170Z,34.95
2017-08-20T11:31:34.761Z,34.93
2017-08-20T11:34:02.598Z,34.70
2017-08-20T11:36:30.258Z,34.67
2017-08-20T11:38:57.783Z,34.62
2017-08-20T11:41:25.696Z,34.50
2017-08-20T11:43:53.354Z,34.56
2017-08-20T11:46:21.169Z,34.46
2017-08-20T11:48:48.818Z,34.30
2017-08-20T11:51:16.372Z,34.18
2017-08-20T11:53:43.889Z,34.13
2017-08-20T11:56:11.541Z,34.47
2017-08-20T11:58:39.099Z,34.10
2017-08-20T12:01:06.720Z,34.02
2017-08-20T12:03:34.284Z,33.83
2017-08-20T12:06:01.870Z,33.76
2017-08-20T12:08:29.543Z,33.81
2017-08-20T12:10:57.170Z,33.68
2017-08-20T12:13:24.821Z,33.74
2017-08-20T12:15:52.620Z,33.74
2017-08-20T12:18:20.264Z,33.58
2017-08-20T12:20:47.976Z,33.56
2017-08-20T12:23:15.544Z,33.71
2017-08-20T12:25:43.165Z,33.58
2017-08-20T12:28:10.750Z,33.49
2017-08-20T12:30:38.336Z,33.45
2017-08-20T12:33:05.894Z,33.32
2017-08-20T12:35:33.450Z,33.10
2017-08-20T12:38:01.117Z,33.43
2017-08-20T12:40:28.813Z,32.98
2017-08-20T12:42:56.365Z,33.13
2017-08-20T12:45:24.181Z,33.13
2017-08-20T12:47:52.009Z,33.37
2017-08-20T12:50:19.616Z,33.62
2017-08-20T12:52:47.238Z,33.48
2017-08-20T12:55:14.751Z,33.15
2017-08-20T12:57:42.338Z,33.27
2017-08-20T13:00:09.895Z,33.49
2017-08-20T13:02:37.458Z,33.00
2017-08-20T13:05:04.971Z,32.90
2017-08-20T13:07:32.520Z,32.64
2017-08-20T13:10:00.099Z,33.34
2017-08-20T13:12:27.626Z,32.98
2017-08-20T13:14:55.145Z,32.83
2017-08-20T13:17:22.710Z,32.80
2017-08-20T13:19:50.355Z,32.67
2017-08-20T13:22:17.925Z,32.86
2017-08-20T13:24:45.466Z,32.34
2017-08-20T13:27:13.047Z,32.29
2017-08-20T13:29:40.618Z,32.54
2017-08-20T13:32:08.153Z,32.64
2017-08-20T13:34:35.668Z,31.78
2017-08-20T13:37:03.264Z,31.70
2017-08-20T13:39:30.783Z,31.57
2017-08-20T13:41:58.300Z,31.65
2017-08-20T13:44:25.853Z,32.09
2017-08-20T13:46:53.372Z,31.99
2017-08-20T13:49:20.942Z,31.97
2017-08-20T13:51:48.637Z,32.01
2017-08-20T13:54:16.173Z,31.87
2017-08-20T13:56:43.721Z,31.80
2017-08-20T13:59:12.324Z,31.86
2017-08-20T14:01:39.841Z,31.90
2017-08-20T14:04:07.401Z,31.80
2017-08-20T14:06:34.920Z,31.85
2017-08-20T14:09:02.498Z,32.22
2017-08-20T14:11:30.018Z,32.05
2017-08-20T14:13:57.563Z,31.61
2017-08-20T14:16:25.150Z,31.62
2017-08-20T14:18:52.732Z,32.48
2017-08-20T14:21:20.289Z,31.78
2017-08-20T14:23:47.849Z,31.78
2017-08-20T14:26:15.393Z,31.87
2017-08-20T14:28:42.925Z,31.72
2017-08-20T14:31:10.502Z,31.60
2017-08-20T14:33:38.142Z,31.69
2017-08-20T14:36:05.654Z,31.81
2017-08-20T14:38:33.240Z,31.64
2017-08-20T14:41:00.787Z,31.96
2017-08-20T14:43:28.307Z,31.71
2017-08-20T14:45:55.928Z,31.72
2017-08-20T14:48:23.555Z,31.75
2017-08-20T14:50:51.093Z,32.32
2017-08-20T14:53:18.682Z,32.27
2017-08-20T14:55:46.296Z,31.99
2017-08-20T14:58:13.868Z,31.75
2017-08-20T15:00:41.444Z,31.50
2017-08-20T15:03:08.961Z,31.45
2017-08-20T15:05:36.477Z,31.59
2017-08-20T15:08:04.139Z,32.14
2017-08-20T15:10:31.764Z,31.67
2017-08-20T15:12:59.323Z,32.28
2017-08-20T15:15:26.985Z,32.27
2017-08-20T15:17:54.581Z,32.13
2017-08-20T15:20:22.279Z,32.25
2017-08-20T15:22:49.825Z,32.25
2017-08-20T15:25:17.345Z,32.40
2017-08-20T15:27:44.912Z,32.72
2017-08-20T15:30:12.459Z,32.24
2017-08-20T15:32:40.033Z,32.00
2017-08-20T15:35:07.553Z,32.15
2017-08-20T15:37:35.156Z,32.22
2017-08-20T15:40:02.698Z,32.17
2017-08-20T15:42:30.259Z,32.35
2017-08-20T15:44:57.858Z,31.93
2017-08-20T15:47:25.394Z,31.78
2017-08-20T15:49:52.995Z,31.76
2017-08-20T15:52:20.616Z,31.84
2017-08-20T15:54:48.138Z,31.70
2017-08-20T15:57:15.668Z,32.48
2017-08-20T15:59:43.221Z,31.44
2017-08-20T16:02:10.779Z,31.42
2017-08-20T16:04:38.389Z,32.14
2017-08-20T16:07:05.915Z,31.57
2017-08-20T16:09:33.795Z,31.58
2017-08-20T16:12:01.537Z,31.32
2017-08-20T16:14:29.047Z,31.06
2017-08-20T16:16:56.603Z,30.98
2017-08-20T16:19:24.171Z,31.13
2017-08-20T16:21:51.677Z,30.95
2017-08-20T16:24:19.253Z,32.26
2017-08-20T16:26:46.845Z,31.11
2017-08-20T16:29:14.436Z,31.19
2017-08-20T16:31:41.983Z,30.87
2017-08-20T16:34:09.534Z,30.73
2017-08-20T16:36:37.050Z,30.76
2017-08-20T16:39:04.631Z,31.22
2017-08-20T16:41:32.135Z,31.08
2017-08-20T16:43:59.704Z,31.45
2017-08-20T16:46:27.269Z,31.12
2017-08-20T16:48:54.778Z,31.18
2017-08-20T16:51:22.309Z,32.25
2017-08-20T16:53:49.865Z,31.90
2017-08-20T16:56:17.403Z,31.28
2017-08-20T16:58:44.999Z,31.82
2017-08-20T17:01:12.529Z,31.07
2017-08-20T17:03:40.040Z,30.99
2017-08-20T17:06:07.632Z,30.90
2017-08-20T17:08:35.151Z,31.28
2017-08-20T17:11:02.718Z,30.74
2017-08-20T17:13:30.254Z,31.29
2017-08-20T17:15:57.809Z,30.14
2017-08-20T17:18:25.319Z,30.54
2017-08-20T17:20:52.869Z,30.82
2017-08-20T17:23:20.424Z,30.83
2017-08-20T17:25:48.014Z,30.59
2017-08-20T17:28:15.538Z,31.03
2017-08-20T17:30:43.043Z,30.89
2017-08-20T17:33:10.601Z,30.42
2017-08-20T17:35:38.112Z,31.03
2017-08-20T17:38:05.629Z,31.29
2017-08-20T17:40:33.167Z,31.03
2017-08-20T17:43:00.778Z,30.96
2017-08-20T17:45:28.432Z,32.35
2017-08-20T17:47:56.015Z,31.56
2017-08-20T17:50:23.693Z,31.22
2017-08-20T17:52:51.211Z,31.10
2017-08-20T17:55:18.725Z,30.54
2017-08-20T17:57:46.291Z,30.20
2017-08-20T18:00:13.824Z,30.54
2017-08-20T18:02:41.411Z,30.59
2017-08-20T18:05:08.955Z,30.51
2017-08-20T18:07:36.488Z,30.82
2017-08-20T18:10:04.046Z,30.94
2017-08-20T18:12:31.704Z,31.19
2017-08-20T18:14:59.283Z,31.09
2017-08-20T18:17:26.814Z,31.16
2017-08-20T18:19:54.422Z,31.33
2017-08-20T18:22:21.955Z,31.53
2017-08-20T18:24:49.464Z,31.54
2017-08-20T18:27:17.045Z,31.50
2017-08-20T18:29:44.587Z,31.69
2017-08-20T18:32:12.101Z,31.65
2017-08-20T18:34:39.664Z,31.70
2017-08-20T18:37:07.256Z,31.79
2017-08-20T18:39:34.841Z,31.77
2017-08-20T18:42:02.358Z,31.85
2017-08-20T18:44:29.865Z,32.26
2017-08-20T18:46:57.445Z,31.94
2017-08-20T18:49:24.952Z,32.00
2017-08-20T18:51:52.559Z,32.07
2017-08-20T18:54:20.188Z,32.11
2017-08-20T18:56:47.706Z,32.44
2017-08-20T18:59:15.315Z,32.25
2017-08-20T19:01:42.870Z,32.23
2017-08-20T19:04:10.400Z,32.32
2017-08-20T19:06:37.998Z,32.42
2017-08-20T19:09:05.513Z,32.48
2017-08-20T19:11:33.073Z,32.48
2017-08-20T19:14:00.716Z,32.51
2017-08-20T19:16:28.341Z,32.57
2017-08-20T19:18:55.851Z,32.66
2017-08-20T19:21:23.439Z,32.75
2017-08-20T19:23:51.012Z,32.68
2017-08-20T19:26:18.551Z,32.76
2017-08-20T19:28:46.098Z,32.79
2017-08-20T19:31:13.678Z,32.88
2017-08-20T19:33:41.181Z,32.87
2017-08-20T19:36:08.700Z,32.94
2017-08-20T19:38:36.255Z,32.98
2017-08-20T19:41:03.753Z,33.25
2017-08-20T19:43:31.284Z,33.09
2017-08-20T19:45:58.902Z,33.27
2017-08-20T19:48:26.414Z,33.21
2017-08-20T19:50:53.948Z,33.25
2017-08-20T19:53:21.513Z,33.30
2017-08-20T19:55:49.070Z,33.29
2017-08-20T19:58:16.574Z,33.36
2017-08-20T20:00:44.133Z,33.40
2017-08-20T20:03:11.635Z,33.41
2017-08-20T20:05:39.139Z,33.42
2017-08-20T20:08:06.712Z,33.47
2017-08-20T20:10:34.225Z,33.58
2017-08-20T20:13:01.754Z,33.57
2017-08-20T20:15:29.305Z,33.63
2017-08-20T20:17:56.805Z,33.71
2017-08-20T20:20:24.313Z,33.75
2017-08-20T20:22:51.857Z,33.70
2017-08-20T20:25:19.380Z,33.78
2017-08-20T20:27:46.933Z,33.87
2017-08-20T20:30:14.497Z,33.88
2017-08-20T20:32:42.007Z,33.83
2017-08-20T20:35:09.512Z,33.89
2017-08-20T20:37:37.060Z,33.90
2017-08-20T20:40:04.557Z,33.96
2017-08-20T20:42:32.059Z,34.02
2017-08-20T20:44:59.616Z,33.98
2017-08-20T20:47:27.113Z,34.06
2017-08-20T20:49:54.623Z,34.05
2017-08-20T20:52:22.193Z,34.08
2017-08-20T20:54:49.712Z,34.27
2017-08-20T20:57:17.263Z,34.15
2017-08-20T20:59:44.805Z,34.42
2017-08-20T21:02:12.332Z,34.16
2017-08-20T21:04:39.902Z,34.25
2017-08-20T21:07:07.415Z,34.25
2017-08-20T21:09:34.925Z,34.31
2017-08-20T21:12:02.490Z,34.33
2017-08-20T21:14:30.054Z,34.31
2017-08-20T21:16:57.557Z,34.41
2017-08-20T21:19:25.108Z,34.41
2017-08-20T21:21:52.626Z,34.47
2017-08-20T21:24:20.142Z,34.49
2017-08-20T21:26:47.686Z,34.51
2017-08-20T21:29:15.181Z,34.57
2017-08-20T21:31:42.704Z,34.59
2017-08-20T21:34:10.258Z,34.68
2017-08-20T21:36:37.845Z,34.74
2017-08-20T21:39:05.345Z,34.79
2017-08-20T21:41:32.846Z,34.74
2017-08-20T21:44:00.391Z,34.72
2017-08-20T21:46:27.966Z,34.71
2017-08-20T21:48:55.474Z,35.16
2017-08-20T21:51:22.981Z,34.94
2017-08-20T21:53:50.545Z,34.79
2017-08-20T21:56:18.058Z,34.88
2017-08-20T21:58:45.593Z,34.96
2017-08-20T22:01:13.094Z,35.04
2017-08-20T22:03:40.629Z,35.19
2017-08-20T22:06:08.131Z,35.34
2017-08-20T22:08:35.671Z,35.41
2017-08-20T22:11:03.173Z,35.51
2017-08-20T22:13:30.745Z,35.73
2017-08-20T22:15:58.243Z,35.79
2017-08-20T22:18:25.788Z,36.14
2017-08-20T22:20:53.389Z,36.21
2017-08-20T22:23:20.960Z,36.18
2017-08-20T22:25:48.461Z,36.36
2017-08-20T22:28:15.961Z,36.84
2017-08-20T22:30:43.514Z,36.77
2017-08-20T22:33:11.058Z,36.99
2017-08-20T22:35:38.639Z,36.92
2017-08-20T22:38:06.144Z,37.04
2017-08-20T22:40:33.711Z,37.28
2017-08-20T22:43:01.238Z,37.45
2017-08-20T22:45:28.769Z,37.94
2017-08-20T22:47:56.321Z,37.54
2017-08-20T22:50:23.898Z,37.73
2017-08-20T22:52:51.442Z,38.04
2017-08-20T22:55:18.988Z,38.27
2017-08-20T22:57:46.519Z,38.24
2017-08-20T23:00:14.093Z,38.37
2017-08-20T23:02:41.642Z,38.50
2017-08-20T23:05:09.200Z,38.55
2017-08-20T23:07:36.717Z,38.73
2017-08-20T23:10:04.221Z,38.95
2017-08-20T23:12:31.817Z,39.32
2017-08-20T23:14:59.321Z,39.20
2017-08-20T23:17:26.870Z,39.46
2017-08-20T23:19:54.414Z,39.21
2017-08-20T23:22:21.990Z,39.63
2017-08-20T23:24:49.589Z,39.65
2017-08-20T23:27:17.096Z,40.00
2017-08-20T23:29:44.642Z,40.15
2017-08-20T23:32:12.157Z,40.41
2017-08-20T23:34:39.717Z,40.34
2017-08-20T23:37:07.223Z,40.57
2017-08-20T23:39:34.747Z,41.07
2017-08-20T23:42:02.289Z,40.79
2017-08-20T23:44:29.807Z,41.19
2017-08-20T23:46:57.401Z,41.20
2017-08-20T23:49:24.908Z,41.10
2017-08-20T23:51:52.436Z,41.32
2017-08-20T23:54:20.123Z,41.41
2017-08-20T23:56:47.773Z,41.95
2017-08-20T23:59:15.325Z,41.86
